sensor_id;sensor_type;location;lat;lon;timestamp;temperature;humidity
25963;DHT22;13760;52.588;13.406;2023-07-30T00:02:16;17.70;99.90
25963;DHT22;13760;52.588;13.406;2023-07-30T00:04:42;17.70;99.90
25963;DHT22;13760;52.588;13.406;2023-07-30T00:07:08;17.60;99.90
25963;DHT22;13760;52.588;13.406;2023-07-30T00:09:34;17.60;99.90
25963;DHT22;13760;52.588;13.406;2023-07-30T00:11:59;17.60;99.90
25963;DHT22;13760;52.588;13.406;2023-07-30T00:14:27;17.60;99.90
25963;DHT22;13760;52.588;13.406;2023-07-30T00:16:52;17.60;99.90
25963;DHT22;13760;52.588;13.406;2023-07-30T00:19:18;17.50;99.90
25963;DHT22;13760;52.588;13.406;2023-07-30T00:21:43;17.50;99.90
25963;DHT22;13760;52.588;13.406;2023-07-30T00:24:12;17.50;99.90
25963;DHT22;13760;52.588;13.406;2023-07-30T00:26:37;17.50;99.90
25963;DHT22;13760;52.588;13.406;2023-07-30T00:29:03;17.40;99.90
25963;DHT22;13760;52.588;13.406;2023-07-30T00:31:29;17.40;99.90
25963;DHT22;13760;52.588;13.406;2023-07-30T00:33:54;17.40;99.90
25963;DHT22;13760;52.588;13.406;2023-07-30T00:36:20;17.30;99.90
25963;DHT22;13760;52.588;13.406;2023-07-30T00:38:45;17.30;99.90
25963;DHT22;13760;52.588;13.406;2023-07-30T00:41:11;17.30;99.90
25963;DHT22;13760;52.588;13.406;2023-07-30T00:43:36;17.30;99.90
25963;DHT22;13760;52.588;13.406;2023-07-30T00:46:02;17.20;99.90
25963;DHT22;13760;52.588;13.406;2023-07-30T00:48:28;17.20;99.90
25963;DHT22;13760;52.588;13.406;2023-07-30T00:50:55;17.20;99.90
25963;DHT22;13760;52.588;13.406;2023-07-30T00:53:22;17.20;99.90
25963;DHT22;13760;52.588;13.406;2023-07-30T00:55:49;17.10;99.90
25963;DHT22;13760;52.588;13.406;2023-07-30T00:58:15;17.10;99.90
25963;DHT22;13760;52.588;13.406;2023-07-30T01:00:41;17.00;99.90
25963;DHT22;13760;52.588;13.406;2023-07-30T01:03:07;17.00;99.90
25963;DHT22;13760;52.588;13.406;2023-07-30T01:05:33;17.00;99.90
25963;DHT22;13760;52.588;13.406;2023-07-30T01:07:59;16.90;99.90
25963;DHT22;13760;52.588;13.406;2023-07-30T01:10:25;17.00;99.90
25963;DHT22;13760;52.588;13.406;2023-07-30T01:12:51;16.90;99.90
25963;DHT22;13760;52.588;13.406;2023-07-30T01:15:18;16.90;99.90
25963;DHT22;13760;52.588;13.406;2023-07-30T01:17:44;16.80;99.90
25963;DHT22;13760;52.588;13.406;2023-07-30T01:20:10;16.70;99.90
25963;DHT22;13760;52.588;13.406;2023-07-30T01:22:36;16.70;99.90
25963;DHT22;13760;52.588;13.406;2023-07-30T01:25:02;16.70;99.90
25963;DHT22;13760;52.588;13.406;2023-07-30T01:27:36;16.60;99.90
25963;DHT22;13760;52.588;13.406;2023-07-30T01:30:16;16.60;99.90
25963;DHT22;13760;52.588;13.406;2023-07-30T01:32:43;16.60;99.90
25963;DHT22;13760;52.588;13.406;2023-07-30T01:35:13;16.50;99.90
25963;DHT22;13760;52.588;13.406;2023-07-30T01:37:39;16.50;99.90
25963;DHT22;13760;52.588;13.406;2023-07-30T01:40:06;16.50;99.90
25963;DHT22;13760;52.588;13.406;2023-07-30T01:42:32;16.50;99.90
25963;DHT22;13760;52.588;13.406;2023-07-30T01:44:57;16.50;99.90
25963;DHT22;13760;52.588;13.406;2023-07-30T01:47:23;16.40;99.90
25963;DHT22;13760;52.588;13.406;2023-07-30T01:49:48;16.40;99.90
25963;DHT22;13760;52.588;13.406;2023-07-30T01:52:14;16.30;99.90
25963;DHT22;13760;52.588;13.406;2023-07-30T01:54:39;16.30;99.90
25963;DHT22;13760;52.588;13.406;2023-07-30T01:57:05;16.20;99.90
25963;DHT22;13760;52.588;13.406;2023-07-30T01:59:30;16.20;99.90
25963;DHT22;13760;52.588;13.406;2023-07-30T02:01:56;16.20;99.90
25963;DHT22;13760;52.588;13.406;2023-07-30T02:04:21;16.20;99.90
25963;DHT22;13760;52.588;13.406;2023-07-30T02:06:47;16.10;99.90
25963;DHT22;13760;52.588;13.406;2023-07-30T02:09:12;16.10;99.90
25963;DHT22;13760;52.588;13.406;2023-07-30T02:11:38;16.10;99.90
25963;DHT22;13760;52.588;13.406;2023-07-30T02:14:03;16.10;99.90
25963;DHT22;13760;52.588;13.406;2023-07-30T02:16:29;16.10;99.90
25963;DHT22;13760;52.588;13.406;2023-07-30T02:18:54;16.00;99.90
25963;DHT22;13760;52.588;13.406;2023-07-30T02:21:20;16.10;99.90
25963;DHT22;13760;52.588;13.406;2023-07-30T02:23:45;16.00;99.90
25963;DHT22;13760;52.588;13.406;2023-07-30T02:26:10;16.00;99.90
25963;DHT22;13760;52.588;13.406;2023-07-30T02:28:36;16.00;99.90
25963;DHT22;13760;52.588;13.406;2023-07-30T02:31:01;15.90;99.90
25963;DHT22;13760;52.588;13.406;2023-07-30T02:33:27;15.90;99.90
25963;DHT22;13760;52.588;13.406;2023-07-30T02:35:52;15.90;99.90
25963;DHT22;13760;52.588;13.406;2023-07-30T02:38:18;15.80;99.90
25963;DHT22;13760;52.588;13.406;2023-07-30T02:40:43;15.80;99.90
25963;DHT22;13760;52.588;13.406;2023-07-30T02:43:09;15.80;99.90
25963;DHT22;13760;52.588;13.406;2023-07-30T02:45:34;15.80;99.90
25963;DHT22;13760;52.588;13.406;2023-07-30T02:48:00;15.70;99.90
25963;DHT22;13760;52.588;13.406;2023-07-30T02:50:25;15.70;99.90
25963;DHT22;13760;52.588;13.406;2023-07-30T02:52:51;15.70;99.90
25963;DHT22;13760;52.588;13.406;2023-07-30T02:55:16;15.70;99.90
25963;DHT22;13760;52.588;13.406;2023-07-30T02:57:42;15.70;99.90
25963;DHT22;13760;52.588;13.406;2023-07-30T03:00:08;15.70;99.90
25963;DHT22;13760;52.588;13.406;2023-07-30T03:02:34;15.70;99.90
25963;DHT22;13760;52.588;13.406;2023-07-30T03:04:59;15.70;99.90
25963;DHT22;13760;52.588;13.406;2023-07-30T03:07:25;15.70;99.90
25963;DHT22;13760;52.588;13.406;2023-07-30T03:09:51;15.70;99.90
25963;DHT22;13760;52.588;13.406;2023-07-30T03:12:16;15.70;99.90
25963;DHT22;13760;52.588;13.406;2023-07-30T03:14:42;15.70;99.90
25963;DHT22;13760;52.588;13.406;2023-07-30T03:17:07;15.70;99.90
25963;DHT22;13760;52.588;13.406;2023-07-30T03:19:33;15.70;99.90
25963;DHT22;13760;52.588;13.406;2023-07-30T03:21:58;15.70;99.90
25963;DHT22;13760;52.588;13.406;2023-07-30T03:24:23;15.60;99.90
25963;DHT22;13760;52.588;13.406;2023-07-30T03:26:49;15.60;99.90
25963;DHT22;13760;52.588;13.406;2023-07-30T03:29:15;15.60;99.90
25963;DHT22;13760;52.588;13.406;2023-07-30T03:31:41;15.60;99.90
25963;DHT22;13760;52.588;13.406;2023-07-30T03:34:07;15.60;99.90
25963;DHT22;13760;52.588;13.406;2023-07-30T03:36:32;15.60;99.90
25963;DHT22;13760;52.588;13.406;2023-07-30T03:38:58;15.60;99.90
25963;DHT22;13760;52.588;13.406;2023-07-30T03:41:23;15.60;99.90
25963;DHT22;13760;52.588;13.406;2023-07-30T03:43:49;15.60;99.90
25963;DHT22;13760;52.588;13.406;2023-07-30T03:46:15;15.50;99.90
25963;DHT22;13760;52.588;13.406;2023-07-30T03:48:40;15.50;99.90
25963;DHT22;13760;52.588;13.406;2023-07-30T03:51:07;15.50;99.90
25963;DHT22;13760;52.588;13.406;2023-07-30T03:53:32;15.50;99.90
25963;DHT22;13760;52.588;13.406;2023-07-30T03:55:58;15.50;99.90
25963;DHT22;13760;52.588;13.406;2023-07-30T03:58:24;15.60;99.90
25963;DHT22;13760;52.588;13.406;2023-07-30T04:00:49;15.60;99.90
25963;DHT22;13760;52.588;13.406;2023-07-30T04:03:15;15.60;99.90
25963;DHT22;13760;52.588;13.406;2023-07-30T04:05:40;15.60;99.90
25963;DHT22;13760;52.588;13.406;2023-07-30T04:08:05;15.70;99.90
25963;DHT22;13760;52.588;13.406;2023-07-30T04:10:31;15.70;99.90
25963;DHT22;13760;52.588;13.406;2023-07-30T04:12:56;15.70;99.90
25963;DHT22;13760;52.588;13.406;2023-07-30T04:15:22;15.80;99.90
25963;DHT22;13760;52.588;13.406;2023-07-30T04:17:47;15.80;99.90
25963;DHT22;13760;52.588;13.406;2023-07-30T04:20:13;15.90;99.90
25963;DHT22;13760;52.588;13.406;2023-07-30T04:22:38;15.90;99.90
25963;DHT22;13760;52.588;13.406;2023-07-30T04:25:07;16.00;99.90
25963;DHT22;13760;52.588;13.406;2023-07-30T04:27:32;16.10;99.90
25963;DHT22;13760;52.588;13.406;2023-07-30T04:29:58;16.10;99.90
25963;DHT22;13760;52.588;13.406;2023-07-30T04:32:24;16.20;99.90
25963;DHT22;13760;52.588;13.406;2023-07-30T04:34:49;16.20;99.90
25963;DHT22;13760;52.588;13.406;2023-07-30T04:37:14;16.20;99.90
25963;DHT22;13760;52.588;13.406;2023-07-30T04:39:40;16.30;99.90
25963;DHT22;13760;52.588;13.406;2023-07-30T04:42:05;16.30;99.90
25963;DHT22;13760;52.588;13.406;2023-07-30T04:44:31;16.30;99.90
25963;DHT22;13760;52.588;13.406;2023-07-30T04:46:56;16.40;99.90
25963;DHT22;13760;52.588;13.406;2023-07-30T04:49:22;16.40;99.90
25963;DHT22;13760;52.588;13.406;2023-07-30T04:51:47;16.40;99.90
25963;DHT22;13760;52.588;13.406;2023-07-30T04:54:13;16.50;99.90
25963;DHT22;13760;52.588;13.406;2023-07-30T04:56:38;16.50;99.90
25963;DHT22;13760;52.588;13.406;2023-07-30T04:59:04;16.50;99.90
25963;DHT22;13760;52.588;13.406;2023-07-30T05:01:30;16.60;99.90
25963;DHT22;13760;52.588;13.406;2023-07-30T05:03:56;16.60;99.90
25963;DHT22;13760;52.588;13.406;2023-07-30T05:06:22;16.70;99.90
25963;DHT22;13760;52.588;13.406;2023-07-30T05:08:48;16.70;99.90
25963;DHT22;13760;52.588;13.406;2023-07-30T05:11:13;16.70;99.90
25963;DHT22;13760;52.588;13.406;2023-07-30T05:13:39;16.80;99.90
25963;DHT22;13760;52.588;13.406;2023-07-30T05:16:04;16.80;99.90
25963;DHT22;13760;52.588;13.406;2023-07-30T05:18:30;16.90;99.90
25963;DHT22;13760;52.588;13.406;2023-07-30T05:20:55;16.90;99.90
25963;DHT22;13760;52.588;13.406;2023-07-30T05:23:21;17.00;99.90
25963;DHT22;13760;52.588;13.406;2023-07-30T05:25:47;17.00;99.90
25963;DHT22;13760;52.588;13.406;2023-07-30T05:28:13;17.10;99.90
25963;DHT22;13760;52.588;13.406;2023-07-30T05:30:38;17.20;99.90
25963;DHT22;13760;52.588;13.406;2023-07-30T05:33:04;17.30;99.90
25963;DHT22;13760;52.588;13.406;2023-07-30T05:35:29;17.30;99.90
25963;DHT22;13760;52.588;13.406;2023-07-30T05:37:55;17.40;99.90
25963;DHT22;13760;52.588;13.406;2023-07-30T05:40:21;17.50;99.90
25963;DHT22;13760;52.588;13.406;2023-07-30T05:42:47;17.60;99.90
25963;DHT22;13760;52.588;13.406;2023-07-30T05:45:12;17.60;99.90
25963;DHT22;13760;52.588;13.406;2023-07-30T05:47:38;17.60;99.90
25963;DHT22;13760;52.588;13.406;2023-07-30T05:50:04;17.70;99.90
25963;DHT22;13760;52.588;13.406;2023-07-30T05:52:30;17.70;99.90
25963;DHT22;13760;52.588;13.406;2023-07-30T05:54:55;17.70;99.90
25963;DHT22;13760;52.588;13.406;2023-07-30T05:57:20;17.70;99.90
25963;DHT22;13760;52.588;13.406;2023-07-30T05:59:46;17.80;99.90
25963;DHT22;13760;52.588;13.406;2023-07-30T06:02:12;17.80;99.90
25963;DHT22;13760;52.588;13.406;2023-07-30T06:04:37;17.90;99.90
25963;DHT22;13760;52.588;13.406;2023-07-30T06:07:03;17.90;99.90
25963;DHT22;13760;52.588;13.406;2023-07-30T06:09:29;18.00;99.90
25963;DHT22;13760;52.588;13.406;2023-07-30T06:11:58;18.00;99.90
25963;DHT22;13760;52.588;13.406;2023-07-30T06:14:24;18.00;99.90
25963;DHT22;13760;52.588;13.406;2023-07-30T06:16:51;18.10;99.90
25963;DHT22;13760;52.588;13.406;2023-07-30T06:19:16;18.20;99.90
25963;DHT22;13760;52.588;13.406;2023-07-30T06:21:42;18.20;99.90
25963;DHT22;13760;52.588;13.406;2023-07-30T06:24:08;18.20;99.90
25963;DHT22;13760;52.588;13.406;2023-07-30T06:26:33;18.30;99.90
25963;DHT22;13760;52.588;13.406;2023-07-30T06:28:59;18.30;99.90
25963;DHT22;13760;52.588;13.406;2023-07-30T06:31:24;18.40;99.90
25963;DHT22;13760;52.588;13.406;2023-07-30T06:33:50;18.40;99.90
25963;DHT22;13760;52.588;13.406;2023-07-30T06:36:15;18.50;99.90
25963;DHT22;13760;52.588;13.406;2023-07-30T06:38:41;18.60;99.90
25963;DHT22;13760;52.588;13.406;2023-07-30T06:41:06;18.70;99.90
25963;DHT22;13760;52.588;13.406;2023-07-30T06:43:32;18.70;99.90
25963;DHT22;13760;52.588;13.406;2023-07-30T06:45:58;18.80;99.90
25963;DHT22;13760;52.588;13.406;2023-07-30T06:48:23;18.80;99.90
25963;DHT22;13760;52.588;13.406;2023-07-30T06:50:48;18.90;99.90
25963;DHT22;13760;52.588;13.406;2023-07-30T06:53:14;19.00;99.90
25963;DHT22;13760;52.588;13.406;2023-07-30T06:55:39;19.00;99.90
25963;DHT22;13760;52.588;13.406;2023-07-30T06:58:05;19.10;99.90
25963;DHT22;13760;52.588;13.406;2023-07-30T07:00:30;19.10;99.90
25963;DHT22;13760;52.588;13.406;2023-07-30T07:02:56;19.20;99.90
25963;DHT22;13760;52.588;13.406;2023-07-30T07:05:22;19.20;99.90
25963;DHT22;13760;52.588;13.406;2023-07-30T07:07:47;19.30;99.90
25963;DHT22;13760;52.588;13.406;2023-07-30T07:10:13;19.40;99.90
25963;DHT22;13760;52.588;13.406;2023-07-30T07:12:39;19.60;99.90
25963;DHT22;13760;52.588;13.406;2023-07-30T07:15:05;19.70;99.90
25963;DHT22;13760;52.588;13.406;2023-07-30T07:17:31;19.90;99.90
25963;DHT22;13760;52.588;13.406;2023-07-30T07:19:57;20.10;99.90
25963;DHT22;13760;52.588;13.406;2023-07-30T07:22:23;20.30;99.90
25963;DHT22;13760;52.588;13.406;2023-07-30T07:24:48;20.40;99.90
25963;DHT22;13760;52.588;13.406;2023-07-30T07:27:14;20.40;99.90
25963;DHT22;13760;52.588;13.406;2023-07-30T07:29:39;20.30;99.90
25963;DHT22;13760;52.588;13.406;2023-07-30T07:32:05;20.40;99.90
25963;DHT22;13760;52.588;13.406;2023-07-30T07:34:31;20.40;99.90
25963;DHT22;13760;52.588;13.406;2023-07-30T07:36:56;20.40;99.90
25963;DHT22;13760;52.588;13.406;2023-07-30T07:39:22;20.50;99.90
25963;DHT22;13760;52.588;13.406;2023-07-30T07:41:47;20.50;99.90
25963;DHT22;13760;52.588;13.406;2023-07-30T07:44:12;20.50;99.90
25963;DHT22;13760;52.588;13.406;2023-07-30T07:46:38;20.50;99.90
25963;DHT22;13760;52.588;13.406;2023-07-30T07:49:03;20.50;99.90
25963;DHT22;13760;52.588;13.406;2023-07-30T07:51:29;20.70;99.90
25963;DHT22;13760;52.588;13.406;2023-07-30T07:53:54;20.90;99.90
25963;DHT22;13760;52.588;13.406;2023-07-30T07:56:20;20.90;99.90
25963;DHT22;13760;52.588;13.406;2023-07-30T07:58:45;21.00;99.90
25963;DHT22;13760;52.588;13.406;2023-07-30T08:01:11;21.10;99.90
25963;DHT22;13760;52.588;13.406;2023-07-30T08:03:36;21.20;99.90
25963;DHT22;13760;52.588;13.406;2023-07-30T08:06:02;21.20;99.90
25963;DHT22;13760;52.588;13.406;2023-07-30T08:08:27;21.30;99.90
25963;DHT22;13760;52.588;13.406;2023-07-30T08:10:53;21.40;99.90
25963;DHT22;13760;52.588;13.406;2023-07-30T08:13:19;21.60;99.90
25963;DHT22;13760;52.588;13.406;2023-07-30T08:15:45;21.70;99.90
25963;DHT22;13760;52.588;13.406;2023-07-30T08:18:11;21.70;99.90
25963;DHT22;13760;52.588;13.406;2023-07-30T08:20:36;21.60;99.90
25963;DHT22;13760;52.588;13.406;2023-07-30T08:23:02;21.50;99.90
25963;DHT22;13760;52.588;13.406;2023-07-30T08:25:27;21.50;99.90
25963;DHT22;13760;52.588;13.406;2023-07-30T08:27:53;21.60;99.90
25963;DHT22;13760;52.588;13.406;2023-07-30T08:30:18;21.70;99.90
25963;DHT22;13760;52.588;13.406;2023-07-30T08:32:44;21.80;99.90
25963;DHT22;13760;52.588;13.406;2023-07-30T08:35:10;22.00;99.90
25963;DHT22;13760;52.588;13.406;2023-07-30T08:37:36;22.00;99.90
25963;DHT22;13760;52.588;13.406;2023-07-30T08:40:02;21.80;99.90
25963;DHT22;13760;52.588;13.406;2023-07-30T08:42:28;21.80;99.90
25963;DHT22;13760;52.588;13.406;2023-07-30T08:44:54;21.80;99.90
25963;DHT22;13760;52.588;13.406;2023-07-30T08:47:19;21.80;99.90
25963;DHT22;13760;52.588;13.406;2023-07-30T08:49:45;21.80;99.90
25963;DHT22;13760;52.588;13.406;2023-07-30T08:52:11;21.80;99.90
25963;DHT22;13760;52.588;13.406;2023-07-30T08:54:38;21.90;99.90
25963;DHT22;13760;52.588;13.406;2023-07-30T08:57:04;22.10;99.90
25963;DHT22;13760;52.588;13.406;2023-07-30T08:59:39;22.30;99.90
25963;DHT22;13760;52.588;13.406;2023-07-30T09:02:09;22.50;99.90
25963;DHT22;13760;52.588;13.406;2023-07-30T09:04:37;22.60;99.90
25963;DHT22;13760;52.588;13.406;2023-07-30T09:07:04;22.50;99.90
25963;DHT22;13760;52.588;13.406;2023-07-30T09:09:33;22.50;99.90
25963;DHT22;13760;52.588;13.406;2023-07-30T09:11:59;22.50;99.90
25963;DHT22;13760;52.588;13.406;2023-07-30T09:14:26;22.40;99.90
25963;DHT22;13760;52.588;13.406;2023-07-30T09:16:57;22.30;99.90
25963;DHT22;13760;52.588;13.406;2023-07-30T09:19:23;22.20;99.90
25963;DHT22;13760;52.588;13.406;2023-07-30T09:21:49;22.20;99.90
25963;DHT22;13760;52.588;13.406;2023-07-30T09:24:21;22.20;99.90
25963;DHT22;13760;52.588;13.406;2023-07-30T09:26:47;22.30;99.90
25963;DHT22;13760;52.588;13.406;2023-07-30T09:29:13;22.50;99.90
25963;DHT22;13760;52.588;13.406;2023-07-30T09:31:50;22.60;99.90
25963;DHT22;13760;52.588;13.406;2023-07-30T09:34:24;22.70;99.90
25963;DHT22;13760;52.588;13.406;2023-07-30T09:36:52;22.70;99.90
25963;DHT22;13760;52.588;13.406;2023-07-30T09:39:21;22.60;99.90
25963;DHT22;13760;52.588;13.406;2023-07-30T09:41:49;22.40;99.90
25963;DHT22;13760;52.588;13.406;2023-07-30T09:44:17;22.50;99.90
25963;DHT22;13760;52.588;13.406;2023-07-30T09:46:45;22.50;99.90
25963;DHT22;13760;52.588;13.406;2023-07-30T09:49:10;22.40;99.90
25963;DHT22;13760;52.588;13.406;2023-07-30T09:51:37;22.40;99.90
25963;DHT22;13760;52.588;13.406;2023-07-30T09:54:04;22.40;99.90
25963;DHT22;13760;52.588;13.406;2023-07-30T09:56:31;22.30;99.90
25963;DHT22;13760;52.588;13.406;2023-07-30T09:58:59;22.20;99.90
25963;DHT22;13760;52.588;13.406;2023-07-30T10:01:26;22.10;99.90
25963;DHT22;13760;52.588;13.406;2023-07-30T10:03:56;22.00;99.90
25963;DHT22;13760;52.588;13.406;2023-07-30T10:06:27;22.00;99.90
25963;DHT22;13760;52.588;13.406;2023-07-30T10:08:56;22.00;99.90
25963;DHT22;13760;52.588;13.406;2023-07-30T10:11:23;21.90;99.90
25963;DHT22;13760;52.588;13.406;2023-07-30T10:13:49;21.90;99.90
25963;DHT22;13760;52.588;13.406;2023-07-30T10:16:15;21.80;99.90
25963;DHT22;13760;52.588;13.406;2023-07-30T10:18:42;21.80;99.90
25963;DHT22;13760;52.588;13.406;2023-07-30T10:21:22;21.80;99.90
25963;DHT22;13760;52.588;13.406;2023-07-30T10:24:00;21.80;99.90
25963;DHT22;13760;52.588;13.406;2023-07-30T10:26:27;21.80;99.90
25963;DHT22;13760;52.588;13.406;2023-07-30T10:29:16;21.90;99.90
25963;DHT22;13760;52.588;13.406;2023-07-30T10:31:55;22.20;99.90
25963;DHT22;13760;52.588;13.406;2023-07-30T10:34:22;22.40;99.90
25963;DHT22;13760;52.588;13.406;2023-07-30T10:36:50;22.60;99.90
25963;DHT22;13760;52.588;13.406;2023-07-30T10:39:20;22.60;99.90
25963;DHT22;13760;52.588;13.406;2023-07-30T10:41:50;22.60;99.90
25963;DHT22;13760;52.588;13.406;2023-07-30T10:44:22;22.60;99.90
25963;DHT22;13760;52.588;13.406;2023-07-30T10:46:48;22.60;99.90
25963;DHT22;13760;52.588;13.406;2023-07-30T10:49:14;22.60;99.90
25963;DHT22;13760;52.588;13.406;2023-07-30T10:51:40;22.60;99.90
25963;DHT22;13760;52.588;13.406;2023-07-30T10:54:08;22.50;99.90
25963;DHT22;13760;52.588;13.406;2023-07-30T10:56:36;22.50;99.90
25963;DHT22;13760;52.588;13.406;2023-07-30T10:59:04;22.50;99.90
25963;DHT22;13760;52.588;13.406;2023-07-30T11:01:39;22.50;99.90
25963;DHT22;13760;52.588;13.406;2023-07-30T11:04:14;22.40;99.90
25963;DHT22;13760;52.588;13.406;2023-07-30T11:06:47;22.50;99.90
25963;DHT22;13760;52.588;13.406;2023-07-30T11:09:21;22.40;99.90
25963;DHT22;13760;52.588;13.406;2023-07-30T11:11:48;22.40;99.90
25963;DHT22;13760;52.588;13.406;2023-07-30T11:14:22;22.40;99.90
25963;DHT22;13760;52.588;13.406;2023-07-30T11:16:57;22.40;99.90
25963;DHT22;13760;52.588;13.406;2023-07-30T11:19:26;22.40;99.90
25963;DHT22;13760;52.588;13.406;2023-07-30T11:21:53;22.60;99.90
25963;DHT22;13760;52.588;13.406;2023-07-30T11:24:19;22.90;99.90
25963;DHT22;13760;52.588;13.406;2023-07-30T11:26:58;23.10;99.90
25963;DHT22;13760;52.588;13.406;2023-07-30T11:29:24;23.40;99.90
25963;DHT22;13760;52.588;13.406;2023-07-30T11:31:50;23.60;99.90
25963;DHT22;13760;52.588;13.406;2023-07-30T11:34:16;23.70;99.90
25963;DHT22;13760;52.588;13.406;2023-07-30T11:36:43;23.90;99.90
25963;DHT22;13760;52.588;13.406;2023-07-30T11:39:10;23.90;99.90
25963;DHT22;13760;52.588;13.406;2023-07-30T11:41:36;24.00;99.90
25963;DHT22;13760;52.588;13.406;2023-07-30T11:44:02;24.20;99.90
25963;DHT22;13760;52.588;13.406;2023-07-30T11:46:28;24.20;99.90
25963;DHT22;13760;52.588;13.406;2023-07-30T11:49:12;24.20;99.90
25963;DHT22;13760;52.588;13.406;2023-07-30T11:51:37;24.30;99.90
25963;DHT22;13760;52.588;13.406;2023-07-30T11:54:03;24.10;99.90
25963;DHT22;13760;52.588;13.406;2023-07-30T11:56:30;24.20;99.90
25963;DHT22;13760;52.588;13.406;2023-07-30T11:59:01;24.30;99.90
25963;DHT22;13760;52.588;13.406;2023-07-30T12:01:30;24.30;99.90
25963;DHT22;13760;52.588;13.406;2023-07-30T12:03:57;24.40;99.90
25963;DHT22;13760;52.588;13.406;2023-07-30T12:06:22;24.40;99.90
25963;DHT22;13760;52.588;13.406;2023-07-30T12:08:52;24.40;99.90
25963;DHT22;13760;52.588;13.406;2023-07-30T12:11:19;24.40;99.90
25963;DHT22;13760;52.588;13.406;2023-07-30T12:13:47;24.30;99.90
25963;DHT22;13760;52.588;13.406;2023-07-30T12:16:15;24.30;99.90
25963;DHT22;13760;52.588;13.406;2023-07-30T12:18:41;24.30;99.90
25963;DHT22;13760;52.588;13.406;2023-07-30T12:21:07;24.50;99.90
25963;DHT22;13760;52.588;13.406;2023-07-30T12:23:37;24.40;99.90
25963;DHT22;13760;52.588;13.406;2023-07-30T12:26:03;24.30;99.90
25963;DHT22;13760;52.588;13.406;2023-07-30T12:28:33;24.30;99.90
25963;DHT22;13760;52.588;13.406;2023-07-30T12:31:02;24.10;99.90
25963;DHT22;13760;52.588;13.406;2023-07-30T12:33:28;24.10;99.90
25963;DHT22;13760;52.588;13.406;2023-07-30T12:35:53;24.10;99.90
25963;DHT22;13760;52.588;13.406;2023-07-30T12:38:19;24.10;99.90
25963;DHT22;13760;52.588;13.406;2023-07-30T12:40:45;24.20;99.90
25963;DHT22;13760;52.588;13.406;2023-07-30T12:43:10;24.20;99.90
25963;DHT22;13760;52.588;13.406;2023-07-30T12:45:36;24.10;99.10
25963;DHT22;13760;52.588;13.406;2023-07-30T12:48:01;24.00;99.90
25963;DHT22;13760;52.588;13.406;2023-07-30T12:53:27;23.90;99.90
25963;DHT22;13760;52.588;13.406;2023-07-30T12:55:55;23.80;99.90
25963;DHT22;13760;52.588;13.406;2023-07-30T12:58:20;23.80;99.90
25963;DHT22;13760;52.588;13.406;2023-07-30T13:00:46;23.70;99.90
25963;DHT22;13760;52.588;13.406;2023-07-30T13:03:11;23.70;99.90
25963;DHT22;13760;52.588;13.406;2023-07-30T13:05:37;23.70;99.90
25963;DHT22;13760;52.588;13.406;2023-07-30T13:08:02;23.70;99.90
25963;DHT22;13760;52.588;13.406;2023-07-30T13:10:28;23.70;99.90
25963;DHT22;13760;52.588;13.406;2023-07-30T13:12:54;23.60;99.90
25963;DHT22;13760;52.588;13.406;2023-07-30T13:15:19;23.60;99.90
25963;DHT22;13760;52.588;13.406;2023-07-30T13:17:45;23.60;99.90
25963;DHT22;13760;52.588;13.406;2023-07-30T13:20:11;23.60;99.90
25963;DHT22;13760;52.588;13.406;2023-07-30T13:22:36;23.60;99.90
25963;DHT22;13760;52.588;13.406;2023-07-30T13:25:02;23.60;99.90
25963;DHT22;13760;52.588;13.406;2023-07-30T13:27:28;23.70;99.90
25963;DHT22;13760;52.588;13.406;2023-07-30T13:30:01;23.70;99.90
25963;DHT22;13760;52.588;13.406;2023-07-30T13:32:37;23.80;99.90
25963;DHT22;13760;52.588;13.406;2023-07-30T13:35:03;23.80;99.90
25963;DHT22;13760;52.588;13.406;2023-07-30T13:37:28;23.80;99.90
25963;DHT22;13760;52.588;13.406;2023-07-30T13:39:54;23.80;99.90
25963;DHT22;13760;52.588;13.406;2023-07-30T13:42:19;23.80;99.90
25963;DHT22;13760;52.588;13.406;2023-07-30T13:44:45;23.70;99.90
25963;DHT22;13760;52.588;13.406;2023-07-30T13:47:11;23.70;99.90
25963;DHT22;13760;52.588;13.406;2023-07-30T13:49:37;23.60;99.90
25963;DHT22;13760;52.588;13.406;2023-07-30T13:52:02;23.60;99.90
25963;DHT22;13760;52.588;13.406;2023-07-30T13:54:28;23.50;99.90
25963;DHT22;13760;52.588;13.406;2023-07-30T13:56:53;23.40;99.90
25963;DHT22;13760;52.588;13.406;2023-07-30T13:59:19;23.40;99.90
25963;DHT22;13760;52.588;13.406;2023-07-30T14:01:45;23.40;99.90
25963;DHT22;13760;52.588;13.406;2023-07-30T14:04:10;23.40;99.90
25963;DHT22;13760;52.588;13.406;2023-07-30T14:06:36;23.30;99.90
25963;DHT22;13760;52.588;13.406;2023-07-30T14:09:02;23.30;99.90
25963;DHT22;13760;52.588;13.406;2023-07-30T14:11:29;23.30;99.90
25963;DHT22;13760;52.588;13.406;2023-07-30T14:13:54;23.20;99.90
25963;DHT22;13760;52.588;13.406;2023-07-30T14:16:21;23.10;99.90
25963;DHT22;13760;52.588;13.406;2023-07-30T14:18:46;23.10;99.90
25963;DHT22;13760;52.588;13.406;2023-07-30T14:21:12;23.00;99.90
25963;DHT22;13760;52.588;13.406;2023-07-30T14:23:38;22.90;99.90
25963;DHT22;13760;52.588;13.406;2023-07-30T14:26:04;22.90;99.90
25963;DHT22;13760;52.588;13.406;2023-07-30T14:28:30;22.80;99.90
25963;DHT22;13760;52.588;13.406;2023-07-30T14:30:55;22.70;99.90
25963;DHT22;13760;52.588;13.406;2023-07-30T14:33:21;22.60;99.90
25963;DHT22;13760;52.588;13.406;2023-07-30T14:35:47;22.70;99.90
25963;DHT22;13760;52.588;13.406;2023-07-30T14:38:12;22.60;99.90
25963;DHT22;13760;52.588;13.406;2023-07-30T14:40:38;22.50;99.90
25963;DHT22;13760;52.588;13.406;2023-07-30T14:43:04;22.50;99.90
25963;DHT22;13760;52.588;13.406;2023-07-30T14:45:29;22.30;99.90
25963;DHT22;13760;52.588;13.406;2023-07-30T14:47:55;22.20;99.90
25963;DHT22;13760;52.588;13.406;2023-07-30T14:50:24;22.10;99.90
25963;DHT22;13760;52.588;13.406;2023-07-30T14:52:49;22.00;99.90
25963;DHT22;13760;52.588;13.406;2023-07-30T14:55:15;21.90;99.90
25963;DHT22;13760;52.588;13.406;2023-07-30T14:57:41;21.90;99.90
25963;DHT22;13760;52.588;13.406;2023-07-30T15:00:07;21.80;99.90
25963;DHT22;13760;52.588;13.406;2023-07-30T15:02:36;21.80;99.90
25963;DHT22;13760;52.588;13.406;2023-07-30T15:05:29;21.70;99.90
25963;DHT22;13760;52.588;13.406;2023-07-30T15:07:54;21.60;99.90
25963;DHT22;13760;52.588;13.406;2023-07-30T15:10:20;21.50;99.90
25963;DHT22;13760;52.588;13.406;2023-07-30T15:12:46;21.40;99.90
25963;DHT22;13760;52.588;13.406;2023-07-30T15:15:11;21.30;99.90